sensor_id;sensor_type;location;lat;lon;timestamp;temperature;humidity
45313;SHT31;68267;51.540;5.854;2023-06-26T00:06:03;22.8;67.7
45313;SHT31;68267;51.540;5.854;2023-06-26T00:19:23;22.6;68.6
45313;SHT31;68267;51.540;5.854;2023-06-26T00:32:42;22.6;68.8
45313;SHT31;68267;51.540;5.854;2023-06-26T00:46:02;22.6;68.5
45313;SHT31;68267;51.540;5.854;2023-06-26T00:59:22;22.8;67.2
45313;SHT31;68267;51.540;5.854;2023-06-26T01:12:41;22.6;67.3
45313;SHT31;68267;51.540;5.854;2023-06-26T01:26:01;22.4;68.0
45313;SHT31;68267;51.540;5.854;2023-06-26T01:39:20;22.0;69.4
45313;SHT31;68267;51.540;5.854;2023-06-26T01:52:40;21.7;70.0
45313;SHT31;68267;51.540;5.854;2023-06-26T02:06:00;21.5;68.1
45313;SHT31;68267;51.540;5.854;2023-06-26T02:19:19;21.4;67.5
45313;SHT31;68267;51.540;5.854;2023-06-26T02:32:39;21.1;67.5
45313;SHT31;68267;51.540;5.854;2023-06-26T02:45:59;20.9;68.9
45313;SHT31;68267;51.540;5.854;2023-06-26T02:59:19;20.6;70.0
45313;SHT31;68267;51.540;5.854;2023-06-26T03:12:38;20.4;71.2
45313;SHT31;68267;51.540;5.854;2023-06-26T03:25:58;20.3;71.0
45313;SHT31;68267;51.540;5.854;2023-06-26T03:39:18;20.2;71.3
45313;SHT31;68267;51.540;5.854;2023-06-26T03:52:37;20.1;71.0
45313;SHT31;68267;51.540;5.854;2023-06-26T04:05:57;20.1;71.6
45313;SHT31;68267;51.540;5.854;2023-06-26T04:19:17;19.9;73.5
45313;SHT31;68267;51.540;5.854;2023-06-26T04:32:37;19.8;74.9
45313;SHT31;68267;51.540;5.854;2023-06-26T04:45:57;19.6;75.9
45313;SHT31;68267;51.540;5.854;2023-06-26T04:59:17;19.7;76.7
45313;SHT31;68267;51.540;5.854;2023-06-26T05:12:36;19.7;77.2
45313;SHT31;68267;51.540;5.854;2023-06-26T05:25:56;19.7;77.8
45313;SHT31;68267;51.540;5.854;2023-06-26T05:39:16;19.9;76.9
45313;SHT31;68267;51.540;5.854;2023-06-26T05:52:36;20.0;76.8
45313;SHT31;68267;51.540;5.854;2023-06-26T06:05:55;19.8;76.9
45313;SHT31;68267;51.540;5.854;2023-06-26T06:19:15;20.1;75.7
45313;SHT31;68267;51.540;5.854;2023-06-26T06:32:35;20.4;74.8
45313;SHT31;68267;51.540;5.854;2023-06-26T06:45:54;20.6;72.9
45313;SHT31;68267;51.540;5.854;2023-06-26T06:59:14;20.8;73.2
45313;SHT31;68267;51.540;5.854;2023-06-26T07:12:34;21.0;71.0
45313;SHT31;68267;51.540;5.854;2023-06-26T07:25:54;21.2;70.1
45313;SHT31;68267;51.540;5.854;2023-06-26T07:39:13;21.4;69.7
45313;SHT31;68267;51.540;5.854;2023-06-26T07:52:33;21.4;70.2
45313;SHT31;68267;51.540;5.854;2023-06-26T08:05:53;21.4;69.3
45313;SHT31;68267;51.540;5.854;2023-06-26T08:19:12;21.8;69.0
45313;SHT31;68267;51.540;5.854;2023-06-26T08:32:32;21.9;67.5
45313;SHT31;68267;51.540;5.854;2023-06-26T08:45:52;21.5;68.9
45313;SHT31;68267;51.540;5.854;2023-06-26T08:59:12;22.1;65.6
45313;SHT31;68267;51.540;5.854;2023-06-26T09:12:31;22.0;54.5
45313;SHT31;68267;51.540;5.854;2023-06-26T09:25:51;22.5;58.1
45313;SHT31;68267;51.540;5.854;2023-06-26T09:39:11;21.7;59.7
45313;SHT31;68267;51.540;5.854;2023-06-26T09:52:30;22.6;59.7
45313;SHT31;68267;51.540;5.854;2023-06-26T10:05:50;21.8;57.1
45313;SHT31;68267;51.540;5.854;2023-06-26T10:19:10;22.2;51.5
45313;SHT31;68267;51.540;5.854;2023-06-26T10:32:30;22.6;53.7
45313;SHT31;68267;51.540;5.854;2023-06-26T10:45:49;22.9;56.1
45313;SHT31;68267;51.540;5.854;2023-06-26T10:59:09;21.9;52.7
45313;SHT31;68267;51.540;5.854;2023-06-26T11:12:29;22.6;53.6
45313;SHT31;68267;51.540;5.854;2023-06-26T11:25:49;21.7;51.0
45313;SHT31;68267;51.540;5.854;2023-06-26T11:39:09;21.8;50.1
45313;SHT31;68267;51.540;5.854;2023-06-26T11:52:29;22.8;49.4
45313;SHT31;68267;51.540;5.854;2023-06-26T12:05:48;22.3;48.3
45313;SHT31;68267;51.540;5.854;2023-06-26T12:19:08;22.4;48.2
45313;SHT31;68267;51.540;5.854;2023-06-26T12:32:28;21.5;49.0
45313;SHT31;68267;51.540;5.854;2023-06-26T12:45:47;21.8;55.0
45313;SHT31;68267;51.540;5.854;2023-06-26T12:59:07;22.9;50.3
45313;SHT31;68267;51.540;5.854;2023-06-26T13:12:27;23.0;50.1
45313;SHT31;68267;51.540;5.854;2023-06-26T13:25:47;22.7;49.5
45313;SHT31;68267;51.540;5.854;2023-06-26T13:39:06;23.0;45.3
45313;SHT31;68267;51.540;5.854;2023-06-26T13:52:26;23.0;43.6
45313;SHT31;68267;51.540;5.854;2023-06-26T14:05:45;23.3;46.0
45313;SHT31;68267;51.540;5.854;2023-06-26T14:19:05;23.0;49.2
45313;SHT31;68267;51.540;5.854;2023-06-26T14:32:25;22.4;46.0
45313;SHT31;68267;51.540;5.854;2023-06-26T14:45:44;22.4;48.2
45313;SHT31;68267;51.540;5.854;2023-06-26T14:59:04;22.7;43.1
45313;SHT31;68267;51.540;5.854;2023-06-26T15:12:24;22.2;46.0
45313;SHT31;68267;51.540;5.854;2023-06-26T15:25:43;21.5;43.7
45313;SHT31;68267;51.540;5.854;2023-06-26T15:39:03;21.2;45.1
45313;SHT31;68267;51.540;5.854;2023-06-26T15:52:23;21.1;46.7
45313;SHT31;68267;51.540;5.854;2023-06-26T16:05:42;21.3;47.0
45313;SHT31;68267;51.540;5.854;2023-06-26T16:19:02;21.4;48.2
45313;SHT31;68267;51.540;5.854;2023-06-26T16:32:22;22.2;45.4
45313;SHT31;68267;51.540;5.854;2023-06-26T16:45:41;22.2;44.1
45313;SHT31;68267;51.540;5.854;2023-06-26T16:59:01;21.6;48.9
45313;SHT31;68267;51.540;5.854;2023-06-26T17:12:21;21.3;51.3
45313;SHT31;68267;51.540;5.854;2023-06-26T17:25:40;21.0;53.8
45313;SHT31;68267;51.540;5.854;2023-06-26T17:39:00;21.2;51.8
45313;SHT31;68267;51.540;5.854;2023-06-26T17:52:20;21.8;48.4
45313;SHT31;68267;51.540;5.854;2023-06-26T18:05:40;21.9;48.4
45313;SHT31;68267;51.540;5.854;2023-06-26T18:18:59;21.3;50.5
45313;SHT31;68267;51.540;5.854;2023-06-26T18:32:19;21.0;50.4
45313;SHT31;68267;51.540;5.854;2023-06-26T18:45:39;20.4;52.0
45313;SHT31;68267;51.540;5.854;2023-06-26T18:58:59;20.2;54.0
45313;SHT31;68267;51.540;5.854;2023-06-26T19:12:18;19.7;57.5
45313;SHT31;68267;51.540;5.854;2023-06-26T19:25:38;19.5;57.7
45313;SHT31;68267;51.540;5.854;2023-06-26T19:38:58;19.5;60.0
45313;SHT31;68267;51.540;5.854;2023-06-26T19:52:18;19.4;61.0
45313;SHT31;68267;51.540;5.854;2023-06-26T20:05:38;19.1;61.6
45313;SHT31;68267;51.540;5.854;2023-06-26T20:18:57;18.7;62.9
45313;SHT31;68267;51.540;5.854;2023-06-26T20:32:17;18.0;64.5
45313;SHT31;68267;51.540;5.854;2023-06-26T20:45:37;17.5;66.3
45313;SHT31;68267;51.540;5.854;2023-06-26T20:58:57;17.0;67.6
45313;SHT31;68267;51.540;5.854;2023-06-26T21:12:16;16.6;69.3
45313;SHT31;68267;51.540;5.854;2023-06-26T21:25:36;16.2;70.7
45313;SHT31;68267;51.540;5.854;2023-06-26T21:38:56;16.1;71.3
45313;SHT31;68267;51.540;5.854;2023-06-26T21:52:16;15.8;71.8
45313;SHT31;68267;51.540;5.854;2023-06-26T22:05:36;15.5;73.2
45313;SHT31;68267;51.540;5.854;2023-06-26T22:18:55;15.3;74.3
45313;SHT31;68267;51.540;5.854;2023-06-26T22:32:15;15.1;75.6
45313;SHT31;68267;51.540;5.854;2023-06-26T22:45:35;14.9;75.9
45313;SHT31;68267;51.540;5.854;2023-06-26T22:58:55;14.6;77.4
45313;SHT31;68267;51.540;5.854;2023-06-26T23:12:15;14.4;77.9
45313;SHT31;68267;51.540;5.854;2023-06-26T23:25:34;14.3;78.6
45313;SHT31;68267;51.540;5.854;2023-06-26T23:38:54;14.4;79.0
45313;SHT31;68267;51.540;5.854;2023-06-26T23:52:14;14.5;77.8
